Time;durP1;ratioP1;P1;durP2;ratioP2;P2;SDS_P1;SDS_P2;PMS_P1;PMS_P2;Temp;Humidity;BMP_temperature;BMP_pressure;BME280_temperature;BME280_humidity;BME280_pressure;Samples;Min_cycle;Max_cycle;Signal;HPM_P1;HPM_P2
2022/04/12 00:01:34;;;;;;;;;;;11.20;99.20;;;;;;6139674;23;19921;-80
2022/04/12 00:04:02;;;;;;;;;;;11.10;98.90;;;;;;6148860;23;19927;-80
2022/04/12 00:06:30;;;;;;;;;;;11.10;99.10;;;;;;6117880;23;20093;-80
2022/04/12 00:08:58;;;;;;;;;;;11.10;99.30;;;;;;6143155;23;19931;-81
2022/04/12 00:11:26;;;;;;;;;;;11.00;99.40;;;;;;6115434;23;19925;-81
2022/04/12 00:13:54;;;;;;;;;;;11.00;99.20;;;;;;6150711;23;19921;-81
2022/04/12 00:16:21;;;;;;;;;;;10.90;99.50;;;;;;6092043;23;19927;-80
2022/04/12 00:19:05;;;;;;;;;;;11.30;99.90;;;;;;6116366;23;19931;-81
2022/04/12 00:21:34;;;;;;;;;;;10.90;99.80;;;;;;6118872;23;20243;-81
2022/04/12 00:24:03;;;;;;;;;;;10.90;99.90;;;;;;6122149;23;19920;-81
2022/04/12 00:26:32;;;;;;;;;;;10.80;99.70;;;;;;6151340;23;19921;-80
2022/04/12 00:29:00;;;;;;;;;;;12.40;99.90;;;;;;6152394;23;19925;-80
2022/04/12 00:31:30;;;;;;;;;;;10.80;99.90;;;;;;6142419;23;19927;-80
2022/04/12 00:33:59;;;;;;;;;;;10.80;99.90;;;;;;6115180;23;19939;-80
2022/04/12 00:36:28;;;;;;;;;;;10.80;99.90;;;;;;6139983;23;19921;-80
2022/04/12 00:38:56;;;;;;;;;;;10.90;99.90;;;;;;6150121;23;19921;-78
2022/04/12 00:41:23;;;;;;;;;;;10.80;99.90;;;;;;6139216;23;19920;-80
2022/04/12 00:43:51;;;;;;;;;;;10.80;99.90;;;;;;6125411;23;19921;-80
2022/04/12 00:46:19;;;;;;;;;;;10.80;99.90;;;;;;6116338;23;19986;-82
2022/04/12 00:48:46;;;;;;;;;;;10.80;99.90;;;;;;6115173;23;19935;-81
2022/04/12 00:51:16;;;;;;;;;;;10.70;99.90;;;;;;6115846;23;19947;-80
2022/04/12 00:53:44;;;;;;;;;;;10.70;99.90;;;;;;6150692;23;19916;-81
2022/04/12 00:56:11;;;;;;;;;;;10.70;99.90;;;;;;6124796;23;19921;-81
2022/04/12 00:58:40;;;;;;;;;;;10.70;99.90;;;;;;6118448;23;19925;-80
2022/04/12 01:01:07;;;;;;;;;;;10.70;99.90;;;;;;6143134;23;19925;-81
2022/04/12 01:03:36;;;;;;;;;;;11.40;99.90;;;;;;6139983;23;19927;-81
2022/04/12 01:06:04;;;;;;;;;;;10.60;99.90;;;;;;6140746;23;19921;-81
2022/04/12 01:08:32;;;;;;;;;;;10.60;99.90;;;;;;6094302;23;19927;-79
2022/04/12 01:11:06;;;;;;;;;;;10.60;99.90;;;;;;6142200;23;19925;-80
2022/04/12 01:13:36;;;;;;;;;;;10.70;99.90;;;;;;6137808;23;19928;-81
2022/04/12 01:16:07;;;;;;;;;;;9.40;99.90;;;;;;6125188;23;19925;-81
2022/04/12 01:18:37;;;;;;;;;;;10.50;99.90;;;;;;6140046;23;19921;-81
2022/04/12 01:21:05;;;;;;;;;;;10.60;99.90;;;;;;6151706;23;19931;-80
2022/04/12 01:23:44;;;;;;;;;;;10.60;99.90;;;;;;6116485;23;19921;-81
2022/04/12 01:26:12;;;;;;;;;;;10.60;99.90;;;;;;6127048;23;19931;-81
2022/04/12 01:28:43;;;;;;;;;;;10.60;99.90;;;;;;6142006;23;19931;-80
2022/04/12 01:31:12;;;;;;;;;;;10.60;99.90;;;;;;6116376;23;19921;-80
2022/04/12 01:33:40;;;;;;;;;;;10.00;99.90;;;;;;6116318;23;19921;-79
2022/04/12 01:36:08;;;;;;;;;;;10.60;99.90;;;;;;6153166;23;19954;-78
2022/04/12 01:38:36;;;;;;;;;;;10.50;99.90;;;;;;6143711;23;19931;-79
2022/04/12 01:41:04;;;;;;;;;;;10.50;99.90;;;;;;6140129;23;19927;-80
2022/04/12 01:43:33;;;;;;;;;;;10.50;99.90;;;;;;6114004;23;19921;-80
2022/04/12 01:46:00;;;;;;;;;;;10.50;99.90;;;;;;6148160;23;19931;-80
2022/04/12 01:48:28;;;;;;;;;;;10.40;99.90;;;;;;6150068;23;19929;-80
2022/04/12 01:50:56;;;;;;;;;;;10.40;99.90;;;;;;6140704;23;19921;-81
2022/04/12 01:53:24;;;;;;;;;;;10.40;99.90;;;;;;6150104;23;19931;-81
2022/04/12 01:55:51;;;;;;;;;;;10.30;99.90;;;;;;6113854;23;19924;-82
2022/04/12 01:58:19;;;;;;;;;;;10.40;99.90;;;;;;6151159;23;19936;-81
2022/04/12 02:00:48;;;;;;;;;;;10.20;99.90;;;;;;6091419;23;19925;-81
2022/04/12 02:03:15;;;;;;;;;;;10.20;99.90;;;;;;6145061;23;19921;-82
2022/04/12 02:05:43;;;;;;;;;;;10.20;99.90;;;;;;6116473;23;19937;-82
2022/04/12 02:08:12;;;;;;;;;;;10.20;99.90;;;;;;6149648;23;19921;-80
2022/04/12 02:10:39;;;;;;;;;;;9.50;99.90;;;;;;6138961;23;20082;-79
2022/04/12 02:13:07;;;;;;;;;;;10.10;99.90;;;;;;6151881;23;19925;-80
2022/04/12 02:15:35;;;;;;;;;;;10.10;99.90;;;;;;6151164;23;19925;-79
2022/04/12 02:18:02;;;;;;;;;;;10.10;99.90;;;;;;6153178;23;19921;-80
2022/04/12 02:20:30;;;;;;;;;;;10.00;99.90;;;;;;6116918;23;19925;-81
2022/04/12 02:22:57;;;;;;;;;;;10.00;99.90;;;;;;6125184;23;19924;-80
2022/04/12 02:25:25;;;;;;;;;;;10.00;99.90;;;;;;6141919;23;19925;-80
2022/04/12 02:27:53;;;;;;;;;;;10.10;99.90;;;;;;6115842;23;19928;-80
2022/04/12 02:30:21;;;;;;;;;;;10.40;99.90;;;;;;6125254;23;19921;-80
2022/04/12 02:32:48;;;;;;;;;;;10.00;99.90;;;;;;6139880;23;19931;-79
2022/04/12 02:35:16;;;;;;;;;;;9.90;99.90;;;;;;6126030;23;19921;-81
2022/04/12 02:37:43;;;;;;;;;;;9.90;99.90;;;;;;6143152;23;19931;-80
2022/04/12 02:40:11;;;;;;;;;;;9.90;99.90;;;;;;6142020;23;19927;-81
2022/04/12 02:42:40;;;;;;;;;;;9.90;99.90;;;;;;6139689;23;19931;-80
2022/04/12 02:45:08;;;;;;;;;;;9.80;99.90;;;;;;6117685;23;19925;-80
2022/04/12 02:47:35;;;;;;;;;;;9.90;99.90;;;;;;6125605;23;19928;-79
2022/04/12 02:50:03;;;;;;;;;;;10.00;99.90;;;;;;6151661;23;20640;-80
2022/04/12 02:52:30;;;;;;;;;;;10.00;99.90;;;;;;6117816;23;19921;-80
2022/04/12 02:54:58;;;;;;;;;;;10.10;99.90;;;;;;6150329;23;20255;-80
2022/04/12 02:57:26;;;;;;;;;;;10.10;99.90;;;;;;6140993;23;19921;-79
2022/04/12 02:59:53;;;;;;;;;;;10.20;99.90;;;;;;6151116;23;19921;-80
2022/04/12 03:02:21;;;;;;;;;;;10.20;99.90;;;;;;6141680;23;19927;-80
2022/04/12 03:04:49;;;;;;;;;;;10.30;99.90;;;;;;6115139;23;19931;-79
2022/04/12 03:07:16;;;;;;;;;;;10.40;99.90;;;;;;6149624;23;19921;-79
2022/04/12 03:09:44;;;;;;;;;;;10.40;99.90;;;;;;6114571;23;19921;-78
2022/04/12 03:12:11;;;;;;;;;;;10.40;99.90;;;;;;6150346;23;19921;-78
2022/04/12 03:14:39;;;;;;;;;;;10.40;99.90;;;;;;6150597;23;19920;-79
2022/04/12 03:17:08;;;;;;;;;;;10.50;99.90;;;;;;6139255;23;19921;-79
2022/04/12 03:19:36;;;;;;;;;;;10.50;99.90;;;;;;6116597;23;19921;-79
2022/04/12 03:22:03;;;;;;;;;;;10.50;99.90;;;;;;6114673;23;19928;-79
2022/04/12 03:24:31;;;;;;;;;;;10.50;99.90;;;;;;6145023;23;19921;-79
2022/04/12 03:26:59;;;;;;;;;;;10.50;99.90;;;;;;6114425;23;19928;-80
2022/04/12 03:29:27;;;;;;;;;;;10.50;99.90;;;;;;6118063;23;20106;-80
2022/04/12 03:31:55;;;;;;;;;;;10.50;99.90;;;;;;6144801;23;19925;-79
2022/04/12 03:34:23;;;;;;;;;;;10.50;99.90;;;;;;6142390;23;19924;-80
2022/04/12 03:36:51;;;;;;;;;;;10.50;99.90;;;;;;6115456;23;19921;-81
2022/04/12 03:39:19;;;;;;;;;;;10.50;99.90;;;;;;6142467;23;19921;-80
2022/04/12 03:41:47;;;;;;;;;;;10.50;99.90;;;;;;6141943;23;19931;-80
2022/04/12 03:44:15;;;;;;;;;;;10.70;99.90;;;;;;6139139;23;19927;-80
2022/04/12 03:46:47;;;;;;;;;;;10.50;99.90;;;;;;6149477;23;19921;-80
2022/04/12 03:49:14;;;;;;;;;;;10.50;99.90;;;;;;6116982;23;19925;-80
2022/04/12 03:51:42;;;;;;;;;;;9.60;99.90;;;;;;6141284;23;19921;-82
2022/04/12 03:54:09;;;;;;;;;;;10.50;99.90;;;;;;6115543;23;19947;-80
2022/04/12 03:56:37;;;;;;;;;;;10.60;99.90;;;;;;6124102;23;20157;-81
2022/04/12 03:59:05;;;;;;;;;;;10.40;99.90;;;;;;6090116;23;19925;-80
2022/04/12 04:01:32;;;;;;;;;;;10.40;99.90;;;;;;6147920;23;19931;-80
2022/04/12 04:04:00;;;;;;;;;;;10.40;99.90;;;;;;6118844;23;20387;-81
2022/04/12 04:06:28;;;;;;;;;;;10.30;99.90;;;;;;6116363;23;19928;-79
2022/04/12 04:08:55;;;;;;;;;;;10.20;99.90;;;;;;6116557;23;19931;-79
2022/04/12 04:11:23;;;;;;;;;;;10.20;99.90;;;;;;6114776;23;19927;-80
2022/04/12 04:13:51;;;;;;;;;;;10.10;99.90;;;;;;6090543;23;19925;-79
2022/04/12 04:16:19;;;;;;;;;;;10.00;99.90;;;;;;6124066;23;19924;-79
2022/04/12 04:18:47;;;;;;;;;;;10.00;99.90;;;;;;6140124;23;19932;-80
2022/04/12 04:21:14;;;;;;;;;;;10.00;99.90;;;;;;6114020;23;19956;-81
2022/04/12 04:23:42;;;;;;;;;;;10.00;99.90;;;;;;6133442;23;19921;-81
2022/04/12 04:26:10;;;;;;;;;;;10.00;99.90;;;;;;6109992;23;19936;-81
2022/04/12 04:28:41;;;;;;;;;;;10.00;99.90;;;;;;6136480;23;19928;-81
2022/04/12 04:31:09;;;;;;;;;;;10.00;99.90;;;;;;6135162;23;19932;-81
2022/04/12 04:33:38;;;;;;;;;;;10.00;99.90;;;;;;6144079;23;19921;-81
2022/04/12 04:36:06;;;;;;;;;;;10.00;99.90;;;;;;6134479;23;19921;-81
2022/04/12 04:38:34;;;;;;;;;;;10.00;99.90;;;;;;6110053;23;19921;-80
2022/04/12 04:41:01;;;;;;;;;;;9.90;99.90;;;;;;6112950;23;19931;-79
2022/04/12 04:43:35;;;;;;;;;;;9.90;99.90;;;;;;6113291;23;19925;-80
2022/04/12 04:46:03;;;;;;;;;;;9.90;99.90;;;;;;6121183;23;19932;-80
2022/04/12 04:48:31;;;;;;;;;;;9.90;99.90;;;;;;6112707;23;20104;-80
2022/04/12 04:50:58;;;;;;;;;;;9.90;99.90;;;;;;6115621;23;19921;-79
2022/04/12 04:53:26;;;;;;;;;;;10.00;99.90;;;;;;6134901;23;19922;-79
2022/04/12 04:55:54;;;;;;;;;;;10.00;99.90;;;;;;6135828;23;19921;-80
2022/04/12 04:58:21;;;;;;;;;;;10.10;99.90;;;;;;6110076;23;19932;-80
2022/04/12 05:00:49;;;;;;;;;;;10.00;99.90;;;;;;6109945;23;19925;-79
2022/04/12 05:03:17;;;;;;;;;;;10.00;99.90;;;;;;6135077;23;19921;-80
2022/04/12 05:05:46;;;;;;;;;;;10.00;99.90;;;;;;6121400;23;19921;-80
2022/04/12 05:08:14;;;;;;;;;;;10.00;99.90;;;;;;6110222;23;20268;-80
2022/04/12 05:10:41;;;;;;;;;;;10.00;99.90;;;;;;6136955;23;19927;-79
2022/04/12 05:13:09;;;;;;;;;;;10.00;99.90;;;;;;6121445;23;19925;-80
2022/04/12 05:15:37;;;;;;;;;;;10.00;99.90;;;;;;6095820;23;19925;-80
2022/04/12 05:18:04;;;;;;;;;;;10.00;99.90;;;;;;6114531;23;19928;-78
2022/04/12 05:20:32;;;;;;;;;;;10.00;99.90;;;;;;6113917;23;19921;-79
2022/04/12 05:23:00;;;;;;;;;;;10.30;99.90;;;;;;6088174;23;20444;-79
2022/04/12 05:25:28;;;;;;;;;;;10.20;99.90;;;;;;6140241;23;19924;-80
2022/04/12 05:27:56;;;;;;;;;;;10.40;99.90;;;;;;6125916;23;19932;-79
2022/04/12 05:30:24;;;;;;;;;;;10.20;99.90;;;;;;6115800;23;19927;-79
2022/04/12 05:32:52;;;;;;;;;;;10.20;99.90;;;;;;6125783;23;19921;-79
2022/04/12 05:35:20;;;;;;;;;;;10.20;99.90;;;;;;6127407;23;19929;-79
2022/04/12 05:37:49;;;;;;;;;;;10.50;99.90;;;;;;6093311;23;19927;-79
2022/04/12 05:40:18;;;;;;;;;;;10.00;99.90;;;;;;6152037;23;19925;-80
2022/04/12 05:42:48;;;;;;;;;;;10.20;99.90;;;;;;6093141;23;19921;-79
2022/04/12 05:45:16;;;;;;;;;;;10.20;99.90;;;;;;6117377;23;19920;-79
2022/04/12 05:47:45;;;;;;;;;;;10.20;99.90;;;;;;6117734;23;19921;-80
2022/04/12 05:50:15;;;;;;;;;;;10.20;99.90;;;;;;6126893;23;19931;-80
2022/04/12 05:52:43;;;;;;;;;;;10.50;99.90;;;;;;6146176;23;19927;-79
2022/04/12 05:55:15;;;;;;;;;;;10.30;99.90;;;;;;6121149;23;20255;-80
2022/04/12 05:57:47;;;;;;;;;;;10.30;99.90;;;;;;6145735;23;19921;-79
2022/04/12 06:00:15;;;;;;;;;;;10.40;99.90;;;;;;6142511;23;19924;-81
2022/04/12 06:02:43;;;;;;;;;;;10.30;99.90;;;;;;6145298;23;20195;-80
2022/04/12 06:05:13;;;;;;;;;;;10.30;99.90;;;;;;6149825;23;19931;-80
2022/04/12 06:07:41;;;;;;;;;;;10.40;99.90;;;;;;6141416;23;19927;-79
2022/04/12 06:10:10;;;;;;;;;;;10.40;99.90;;;;;;6142709;23;19970;-80
2022/04/12 06:12:38;;;;;;;;;;;10.40;99.90;;;;;;6140289;23;19928;-80
2022/04/12 06:15:06;;;;;;;;;;;10.60;99.90;;;;;;6115362;23;20263;-80
2022/04/12 06:17:34;;;;;;;;;;;10.60;99.90;;;;;;6125227;23;19921;-79
2022/04/12 06:20:08;;;;;;;;;;;10.50;99.90;;;;;;6117273;23;19921;-79
2022/04/12 06:22:36;;;;;;;;;;;10.60;99.90;;;;;;6116188;23;19924;-80
2022/04/12 06:25:04;;;;;;;;;;;10.60;99.90;;;;;;6143202;23;19984;-79
2022/04/12 06:27:36;;;;;;;;;;;10.80;99.90;;;;;;6140514;23;19921;-79
2022/04/12 06:30:07;;;;;;;;;;;10.60;99.90;;;;;;6115216;23;19921;-79
2022/04/12 06:32:35;;;;;;;;;;;10.60;99.90;;;;;;6151842;23;19924;-80
2022/04/12 06:35:04;;;;;;;;;;;10.70;99.90;;;;;;6150680;23;20164;-80
2022/04/12 06:37:32;;;;;;;;;;;10.80;99.90;;;;;;6139314;23;19927;-80
2022/04/12 06:40:00;;;;;;;;;;;10.80;99.90;;;;;;6150501;23;19924;-79
2022/04/12 06:42:28;;;;;;;;;;;10.90;99.90;;;;;;6152052;23;20348;-79
2022/04/12 06:44:56;;;;;;;;;;;11.00;99.90;;;;;;6119433;23;19925;-80
2022/04/12 06:47:23;;;;;;;;;;;11.00;99.90;;;;;;6154058;23;19932;-80
2022/04/12 06:49:51;;;;;;;;;;;11.20;99.90;;;;;;6143425;23;19931;-79
2022/04/12 06:52:20;;;;;;;;;;;11.20;99.90;;;;;;6144364;23;19927;-79
2022/04/12 06:54:48;;;;;;;;;;;12.50;99.90;;;;;;6142157;23;19927;-80
2022/04/12 06:57:16;;;;;;;;;;;11.50;99.90;;;;;;6114795;23;19927;-80
2022/04/12 06:59:44;;;;;;;;;;;11.50;99.90;;;;;;6114751;23;19936;-80
2022/04/12 07:02:12;;;;;;;;;;;11.50;99.90;;;;;;6125161;23;19932;-80
2022/04/12 07:04:40;;;;;;;;;;;11.70;99.90;;;;;;6150665;23;19927;-80
2022/04/12 07:07:08;;;;;;;;;;;11.70;99.90;;;;;;6101294;23;19921;-79
2022/04/12 07:09:36;;;;;;;;;;;11.70;99.90;;;;;;6140084;23;20367;-81
2022/04/12 07:12:04;;;;;;;;;;;12.40;99.90;;;;;;6141984;23;19925;-80
2022/04/12 07:14:32;;;;;;;;;;;10.70;99.90;;;;;;6118158;23;19921;-80
2022/04/12 07:17:00;;;;;;;;;;;11.90;99.90;;;;;;6150444;23;19928;-79
2022/04/12 07:19:28;;;;;;;;;;;12.00;99.90;;;;;;6118097;23;19931;-80
2022/04/12 07:21:56;;;;;;;;;;;12.00;99.90;;;;;;6093603;23;19925;-80
2022/04/12 07:24:23;;;;;;;;;;;12.00;99.90;;;;;;6138164;23;19921;-80
2022/04/12 07:26:52;;;;;;;;;;;12.10;99.90;;;;;;6115611;23;19925;-78
2022/04/12 07:29:24;;;;;;;;;;;12.20;99.90;;;;;;6124033;23;19932;-81
2022/04/12 07:31:51;;;;;;;;;;;12.30;99.90;;;;;;6111689;23;19925;-80
2022/04/12 07:34:19;;;;;;;;;;;12.40;99.90;;;;;;6114602;23;19928;-79
2022/04/12 07:36:53;;;;;;;;;;;12.50;99.90;;;;;;6138929;23;19932;-81
2022/04/12 07:39:22;;;;;;;;;;;12.70;99.90;;;;;;6123707;23;19939;-80
2022/04/12 07:41:52;;;;;;;;;;;12.40;99.90;;;;;;6112106;23;19925;-82
2022/04/12 07:44:20;;;;;;;;;;;12.80;99.90;;;;;;6111538;23;19922;-80
2022/04/12 07:46:48;;;;;;;;;;;13.10;99.90;;;;;;6145467;23;19927;-81
2022/04/12 07:49:17;;;;;;;;;;;13.20;99.90;;;;;;6136667;23;19925;-82
2022/04/12 07:51:46;;;;;;;;;;;13.30;99.90;;;;;;6112648;23;20343;-80
2022/04/12 07:54:14;;;;;;;;;;;13.50;99.90;;;;;;6120697;23;19921;-80
2022/04/12 07:56:42;;;;;;;;;;;13.60;99.90;;;;;;6134925;23;19925;-81
2022/04/12 07:59:10;;;;;;;;;;;13.70;99.90;;;;;;6114081;23;19931;-79
2022/04/12 08:01:38;;;;;;;;;;;13.80;99.90;;;;;;6114064;23;19921;-80
2022/04/12 08:04:06;;;;;;;;;;;13.90;99.90;;;;;;6086684;23;19927;-81
2022/04/12 08:06:34;;;;;;;;;;;14.00;99.90;;;;;;6114255;23;19921;-81
2022/04/12 08:09:02;;;;;;;;;;;14.20;99.90;;;;;;6110936;23;19925;-80
2022/04/12 08:11:31;;;;;;;;;;;14.30;99.90;;;;;;6111416;23;19928;-81
2022/04/12 08:13:59;;;;;;;;;;;14.50;99.90;;;;;;6133814;23;19921;-80
2022/04/12 08:16:26;;;;;;;;;;;14.50;99.90;;;;;;6109631;23;19922;-80
2022/04/12 08:18:55;;;;;;;;;;;14.60;99.90;;;;;;6112935;23;19921;-81
2022/04/12 08:21:29;;;;;;;;;;;14.80;99.90;;;;;;6135108;23;19929;-79
2022/04/12 08:23:57;;;;;;;;;;;14.80;99.90;;;;;;6113270;23;19921;-79
2022/04/12 08:26:26;;;;;;;;;;;14.90;99.90;;;;;;6138455;23;20089;-80
2022/04/12 08:28:54;;;;;;;;;;;15.10;99.90;;;;;;6149739;23;19927;-79
2022/04/12 08:31:22;;;;;;;;;;;15.10;99.90;;;;;;6150192;23;19931;-79
2022/04/12 08:33:50;;;;;;;;;;;15.30;99.90;;;;;;6123736;23;19921;-80
2022/04/12 08:36:20;;;;;;;;;;;15.40;99.90;;;;;;6141772;23;19921;-81
2022/04/12 08:38:53;;;;;;;;;;;15.40;99.90;;;;;;6147991;23;19929;-79
2022/04/12 08:41:24;;;;;;;;;;;15.60;99.90;;;;;;6124700;23;19924;-81
2022/04/12 08:43:54;;;;;;;;;;;15.60;99.90;;;;;;6115047;23;19932;-81
2022/04/12 08:46:27;;;;;;;;;;;15.70;99.90;;;;;;6067983;23;19924;-80
2022/04/12 08:48:56;;;;;;;;;;;15.70;99.90;;;;;;6143968;23;19931;-80
2022/04/12 08:51:27;;;;;;;;;;;15.80;99.90;;;;;;6141082;23;19921;-81
2022/04/12 08:53:56;;;;;;;;;;;15.90;99.90;;;;;;6116591;23;19925;-80
2022/04/12 08:56:25;;;;;;;;;;;16.00;99.90;;;;;;6142294;23;19921;-81
2022/04/12 08:58:53;;;;;;;;;;;16.10;99.90;;;;;;6140768;23;19932;-80
2022/04/12 09:01:39;;;;;;;;;;;16.20;99.90;;;;;;6136580;23;19927;-80
2022/04/12 09:04:08;;;;;;;;;;;16.20;99.90;;;;;;6124111;23;19921;-81
2022/04/12 09:06:46;;;;;;;;;;;16.20;99.90;;;;;;6138731;23;19924;-80
2022/04/12 09:09:19;;;;;;;;;;;16.30;99.90;;;;;;6114657;23;19927;-81
2022/04/12 09:12:06;;;;;;;;;;;16.80;99.90;;;;;;6140136;23;19925;-80
2022/04/12 09:14:41;;;;;;;;;;;16.30;99.90;;;;;;6117102;23;19921;-80
2022/04/12 09:17:10;;;;;;;;;;;16.30;99.90;;;;;;6115714;23;19924;-81
2022/04/12 09:19:39;;;;;;;;;;;16.20;99.90;;;;;;6142405;23;19921;-80
2022/04/12 09:22:11;;;;;;;;;;;16.20;99.90;;;;;;6143240;23;19932;-80
2022/04/12 09:24:50;;;;;;;;;;;16.30;99.90;;;;;;6145167;23;19921;-80
2022/04/12 09:27:21;;;;;;;;;;;16.40;99.90;;;;;;6116084;23;19931;-81
2022/04/12 09:29:50;;;;;;;;;;;16.40;99.90;;;;;;6114824;23;19921;-81
2022/04/12 09:32:37;;;;;;;;;;;16.60;99.90;;;;;;6113671;23;19921;-79
2022/04/12 09:35:05;;;;;;;;;;;16.60;99.90;;;;;;6148178;23;19931;-80
2022/04/12 09:37:35;;;;;;;;;;;16.60;99.90;;;;;;6090203;23;19925;-80
2022/04/12 09:40:03;;;;;;;;;;;16.70;99.90;;;;;;6138136;23;19932;-81
2022/04/12 09:42:50;;;;;;;;;;;16.90;99.90;;;;;;6138268;23;19921;-79
2022/04/12 09:45:19;;;;;;;;;;;16.90;99.90;;;;;;6140846;23;19928;-81
2022/04/12 09:47:47;;;;;;;;;;;17.00;99.90;;;;;;6091897;23;19921;-81
2022/04/12 09:50:35;;;;;;;;;;;17.20;99.90;;;;;;6115981;23;19925;-81
2022/04/12 09:53:11;;;;;;;;;;;17.30;99.90;;;;;;6126723;23;19921;-80
2022/04/12 09:55:40;;;;;;;;;;;16.30;99.90;;;;;;6136393;23;20218;-81
2022/04/12 09:58:15;;;;;;;;;;;17.50;99.90;;;;;;6110178;23;20351;-81
2022/04/12 10:00:43;;;;;;;;;;;18.30;99.90;;;;;;6140684;23;19928;-80
2022/04/12 10:03:12;;;;;;;;;;;17.70;99.90;;;;;;6116190;23;19921;-80
2022/04/12 10:05:40;;;;;;;;;;;17.70;99.90;;;;;;6140247;23;19920;-80
2022/04/12 10:08:12;;;;;;;;;;;17.70;99.90;;;;;;6100495;23;19921;-80
2022/04/12 10:10:42;;;;;;;;;;;17.80;99.90;;;;;;6124463;23;20346;-79
2022/04/12 10:13:11;;;;;;;;;;;17.80;99.90;;;;;;6148253;23;19925;-80
2022/04/12 10:15:39;;;;;;;;;;;17.90;99.90;;;;;;6148634;23;19927;-80
2022/04/12 10:18:08;;;;;;;;;;;18.00;99.90;;;;;;6140000;23;19921;-78
2022/04/12 10:20:35;;;;;;;;;;;18.10;99.90;;;;;;6142276;23;19925;-80
2022/04/12 10:23:05;;;;;;;;;;;18.10;99.90;;;;;;6115685;23;20384;-80
2022/04/12 10:25:33;;;;;;;;;;;18.40;99.70;;;;;;6116620;23;19925;-81
2022/04/12 10:28:03;;;;;;;;;;;18.40;99.70;;;;;;6150738;23;19931;-82
2022/04/12 10:30:32;;;;;;;;;;;18.50;99.00;;;;;;6141452;23;19925;-81
2022/04/12 10:33:02;;;;;;;;;;;18.40;98.90;;;;;;6152418;23;19931;-82
2022/04/12 10:35:56;;;;;;;;;;;18.50;99.50;;;;;;6142720;23;20366;-80
2022/04/12 10:38:25;;;;;;;;;;;18.50;99.00;;;;;;6142026;23;20417;-80
2022/04/12 10:40:54;;;;;;;;;;;18.70;98.90;;;;;;6125003;23;19961;-80
2022/04/12 10:43:23;;;;;;;;;;;18.70;98.30;;;;;;6151112;23;19927;-80
2022/04/12 10:45:51;;;;;;;;;;;18.80;98.30;;;;;;6142075;23;20283;-80
2022/04/12 10:48:23;;;;;;;;;;;18.90;98.30;;;;;;6150947;23;19921;-79
2022/04/12 10:50:52;;;;;;;;;;;18.80;98.00;;;;;;6143275;23;19955;-79
2022/04/12 10:53:38;;;;;;;;;;;18.40;98.50;;;;;;6143095;23;19921;-79
2022/04/12 10:56:11;;;;;;;;;;;18.60;98.40;;;;;;6138990;23;20247;-80
2022/04/12 10:58:39;;;;;;;;;;;18.60;98.40;;;;;;6114382;23;20348;-80
2022/04/12 11:01:12;;;;;;;;;;;18.60;98.50;;;;;;6139623;23;19928;-80
2022/04/12 11:03:40;;;;;;;;;;;18.70;98.60;;;;;;6114758;23;19921;-80
2022/04/12 11:06:10;;;;;;;;;;;18.80;98.30;;;;;;6114750;23;19921;-80
2022/04/12 11:08:38;;;;;;;;;;;19.40;98.50;;;;;;6123959;23;19931;-80
2022/04/12 11:11:09;;;;;;;;;;;19.00;98.40;;;;;;6138791;23;19931;-80
2022/04/12 11:13:38;;;;;;;;;;;19.10;98.10;;;;;;6141241;23;19921;-79
2022/04/12 11:16:09;;;;;;;;;;;19.10;98.20;;;;;;6113968;23;19924;-80
2022/04/12 11:18:54;;;;;;;;;;;19.00;97.40;;;;;;6115406;23;19928;-80
2022/04/12 11:21:45;;;;;;;;;;;19.10;97.50;;;;;;6114338;23;19931;-80
2022/04/12 11:24:14;;;;;;;;;;;19.10;97.70;;;;;;6138920;23;19920;-80
2022/04/12 11:26:50;;;;;;;;;;;19.20;97.70;;;;;;6149692;23;19921;-80
2022/04/12 11:29:19;;;;;;;;;;;19.20;97.10;;;;;;6139660;23;20161;-80
2022/04/12 11:31:53;;;;;;;;;;;19.30;97.30;;;;;;6149018;23;19921;-82
2022/04/12 11:34:23;;;;;;;;;;;19.40;97.40;;;;;;6125473;23;19932;-82
2022/04/12 11:36:51;;;;;;;;;;;19.40;97.50;;;;;;6143219;23;19951;-80
2022/04/12 11:39:23;;;;;;;;;;;19.60;97.00;;;;;;6146806;23;19921;-80
2022/04/12 11:41:58;;;;;;;;;;;19.60;96.90;;;;;;6119371;23;19931;-82
2022/04/12 11:44:27;;;;;;;;;;;19.70;96.70;;;;;;6092122;23;19928;-81
2022/04/12 11:46:56;;;;;;;;;;;19.60;96.50;;;;;;6117501;23;19925;-81
2022/04/12 11:49:31;;;;;;;;;;;19.60;96.40;;;;;;6150842;23;19920;-80
2022/04/12 11:52:02;;;;;;;;;;;19.60;96.20;;;;;;6115305;23;19920;-81
2022/04/12 11:54:31;;;;;;;;;;;19.60;96.20;;;;;;6151094;23;19921;-81
2022/04/12 11:57:00;;;;;;;;;;;19.60;96.70;;;;;;6114662;23;20098;-82
2022/04/12 11:59:29;;;;;;;;;;;19.70;96.50;;;;;;6110820;23;19925;-80
2022/04/12 12:02:02;;;;;;;;;;;19.80;95.90;;;;;;6142330;23;19927;-81
2022/04/12 12:04:31;;;;;;;;;;;19.30;96.10;;;;;;6091989;23;19921;-81
2022/04/12 12:07:02;;;;;;;;;;;20.60;96.40;;;;;;6116149;23;19927;-81
2022/04/12 12:09:30;;;;;;;;;;;20.00;95.80;;;;;;6151249;23;19921;-81
2022/04/12 12:11:59;;;;;;;;;;;20.20;96.10;;;;;;6090681;23;19921;-80
2022/04/12 12:14:29;;;;;;;;;;;19.40;95.60;;;;;;6149868;23;19929;-81
2022/04/12 12:17:04;;;;;;;;;;;20.00;96.00;;;;;;6142174;23;19925;-80
2022/04/12 12:19:33;;;;;;;;;;;20.10;95.90;;;;;;6140299;23;19920;-81
2022/04/12 12:22:02;;;;;;;;;;;20.20;95.90;;;;;;6142551;23;19928;-81
2022/04/12 12:24:30;;;;;;;;;;;20.30;96.20;;;;;;6140723;23;19921;-81
2022/04/12 12:26:58;;;;;;;;;;;20.40;95.90;;;;;;6142186;23;19927;-81
2022/04/12 12:29:26;;;;;;;;;;;20.50;96.30;;;;;;6116293;23;19939;-80
2022/04/12 12:31:54;;;;;;;;;;;20.60;95.90;;;;;;6117389;23;19921;-82
2022/04/12 12:34:32;;;;;;;;;;;20.60;95.70;;;;;;6115814;23;19921;-78
2022/04/12 12:37:07;;;;;;;;;;;20.60;95.60;;;;;;6124662;23;19931;-81
2022/04/12 12:39:41;;;;;;;;;;;20.60;95.70;;;;;;6114440;23;19925;-80
2022/04/12 12:42:09;;;;;;;;;;;20.70;95.80;;;;;;6138304;23;19921;-80
2022/04/12 12:44:37;;;;;;;;;;;19.80;95.30;;;;;;6141804;23;19927;-81
2022/04/12 12:47:04;;;;;;;;;;;20.70;95.60;;;;;;6149918;23;19921;-81
2022/04/12 12:49:38;;;;;;;;;;;20.60;95.80;;;;;;6148333;23;19951;-81
2022/04/12 12:52:15;;;;;;;;;;;20.70;95.70;;;;;;6141674;23;19931;-81
2022/04/12 12:54:53;;;;;;;;;;;20.60;95.80;;;;;;6116110;23;19927;-79
2022/04/12 12:57:41;;;;;;;;;;;20.60;96.00;;;;;;6137449;23;19935;-80
2022/04/12 13:00:10;;;;;;;;;;;20.70;96.20;;;;;;6124905;23;19921;-80
2022/04/12 13:02:38;;;;;;;;;;;20.70;95.90;;;;;;6140674;23;19925;-81
2022/04/12 13:05:07;;;;;;;;;;;20.70;95.90;;;;;;6123689;23;19939;-81
2022/04/12 13:07:36;;;;;;;;;;;20.70;95.90;;;;;;6151074;23;19927;-80
2022/04/12 13:10:14;;;;;;;;;;;20.60;95.80;;;;;;6090510;23;20235;-81
2022/04/12 13:12:42;;;;;;;;;;;20.60;95.60;;;;;;6123956;23;19943;-80
2022/04/12 13:15:11;;;;;;;;;;;20.70;95.70;;;;;;6138915;23;19921;-81
2022/04/12 13:17:39;;;;;;;;;;;20.70;95.40;;;;;;6148619;23;19921;-79
2022/04/12 13:20:08;;;;;;;;;;;20.80;95.60;;;;;;6138293;23;19925;-80
2022/04/12 13:22:37;;;;;;;;;;;20.70;95.60;;;;;;6140271;23;19936;-81
2022/04/12 13:25:05;;;;;;;;;;;20.70;95.60;;;;;;6139415;23;19932;-80
2022/04/12 13:27:36;;;;;;;;;;;20.60;95.90;;;;;;6139020;23;20231;-82
2022/04/12 13:30:04;;;;;;;;;;;20.90;95.60;;;;;;6148529;23;19921;-82
2022/04/12 13:32:39;;;;;;;;;;;21.10;95.30;;;;;;6115029;23;19927;-81
2022/04/12 13:35:08;;;;;;;;;;;21.10;95.00;;;;;;6140990;23;20332;-81
2022/04/12 13:37:36;;;;;;;;;;;21.20;95.00;;;;;;6142341;23;19955;-80
2022/04/12 13:40:05;;;;;;;;;;;21.20;95.00;;;;;;6116432;23;19921;-81
2022/04/12 13:42:33;;;;;;;;;;;21.10;94.70;;;;;;6144033;23;19941;-81
2022/04/12 13:45:01;;;;;;;;;;;21.20;95.40;;;;;;6116655;23;19921;-81
2022/04/12 13:47:29;;;;;;;;;;;21.00;95.10;;;;;;6139863;23;19924;-81
2022/04/12 13:49:57;;;;;;;;;;;21.00;95.10;;;;;;6149703;23;20478;-81
2022/04/12 13:52:25;;;;;;;;;;;21.10;95.00;;;;;;6090486;23;19921;-81
2022/04/12 13:54:52;;;;;;;;;;;21.20;95.10;;;;;;6139619;23;20195;-81
2022/04/12 13:57:20;;;;;;;;;;;21.30;95.40;;;;;;6115777;23;19935;-81
2022/04/12 13:59:48;;;;;;;;;;;21.40;95.20;;;;;;6143831;23;19921;-81
2022/04/12 14:02:15;;;;;;;;;;;21.50;94.40;;;;;;6116396;23;19921;-81
2022/04/12 14:04:43;;;;;;;;;;;21.40;94.20;;;;;;6149404;23;19921;-80
2022/04/12 14:07:18;;;;;;;;;;;21.00;94.10;;;;;;6139283;23;19943;-82
2022/04/12 14:09:46;;;;;;;;;;;20.70;94.60;;;;;;6148968;23;19921;-79
2022/04/12 14:12:16;;;;;;;;;;;19.00;94.20;;;;;;6143767;23;19921;-81
2022/04/12 14:14:44;;;;;;;;;;;20.30;94.80;;;;;;6091396;23;19927;-81
2022/04/12 14:17:13;;;;;;;;;;;20.10;95.10;;;;;;6117898;23;19931;-81
2022/04/12 14:19:41;;;;;;;;;;;20.10;95.20;;;;;;6140595;23;19931;-80
2022/04/12 14:22:09;;;;;;;;;;;19.80;95.10;;;;;;6150437;23;19921;-81
2022/04/12 14:24:37;;;;;;;;;;;19.60;95.80;;;;;;6109766;23;20121;-80
2022/04/12 14:27:04;;;;;;;;;;;19.50;96.20;;;;;;6113492;23;19921;-79
2022/04/12 14:29:32;;;;;;;;;;;19.30;96.60;;;;;;6136155;23;19936;-80
2022/04/12 14:32:00;;;;;;;;;;;19.10;96.80;;;;;;6120389;23;19927;-79